Akutan, Alaska
Current Conditions -  °F | °C
As of 2:15 AM on Friday 28 Nov 2014 (Local Time) from PAUT Reporting Station
Overcast Overcast  
Wind Chill: -2°   Ceiling: 3400
Heat Index:   Visibility: 10mi
Dew Point:   Wind: 14mph
Humidity: 89%   Direction: 200°SSW
Pressure: 29.93"   Gusts: NA
Location:  54.14°N, 165.77°W
Report Text: PAUT 281115Z AUTO 20012KT 10SM SCT014 BKN034 OVC049 03/01 A2993 RMK AO2 T00310014
Loading
Personal Weather Stations






























Interactive Weather Map New forecast layout! Learn more

10-Day Weather Forecast

Advertisements
Track Severe Weather on mobile